Ana Sayfa
METAR-TAF:

METAR-TAF

Havaalanları :

Abha, Suudi Arabistan

Enlem: 18-14N, Boylam: 042-39E, yükseklik: 2090 m

Güncel hava durumu gözlemi

Rapor saat 04:00 UTC de 20 dakika önce yapıldı.
Rüzgar güneydan 7 kt
Sıcaklık 15°C
Nem 67%
Basınç 1025 hPa
Görüş mesafesi 10 km veya daha fazla
1500 m altında bulut yok ve kümülonimbus yok

METAR: OEAB 190400Z 19007KT CAVOK 15/09 Q1025 NOSIG

Saat: 07:20 (04:20 UTC)

Tahmin

Rapor saat 23:00 UTC de 5 saat ve 20 dakika önce yapıldı.
Ayın 19'si saat 00 UTC'den ayın 20'si saat 06 UTC'ye kadar geçerli Tahmin
Rüzgar değişken yönden 3 kt
Görüş mesafesi 10 km veya daha fazla
2000 ft yükseklikte az bulutlu
Dönüşüyor
ayın 19'si saat 05 UTC'den ayın 19'si saat 07 UTC'ye kadar
Rüzgar güneybatıdan 15 kt

TAF: OEAB 182300Z 1900/2006 VRB03KT 9999 FEW020 BECMG 1905/1907 22015KT

4.000'den fazla havaalanı için hava durumu gözlemleri ve tahminleri (METAR ve TAF raporları).

Kullanılabilir istasyonlar harita üzerinde sarı ve kırmızı noktalarla gösterilir.

İstasyonun adını görmek için fareyi noktanın üzerinde gezdirin.

Sonrasında hava gözlem ve tahminlerini görmek için tıklayın.

Haritayı değiştirmek için: yaklaştırmak için siyah artı işaretli yeşil düğmeye ve uzaklaştırmak için de eksi işaretli düğmeye hızla tıklayın; bitişik haritalar için yeşil okları kullanın.


METAR-TAF: